createdAt,value
2023-04-05T00:01:19.190Z,102434.91
2023-04-05T00:03:54.244Z,102423.56
2023-04-05T00:06:43.475Z,102426.25
2023-04-05T00:09:10.356Z,102429.84
2023-04-05T00:11:50.094Z,102426.53
2023-04-05T00:14:23.249Z,102436.97
2023-04-05T00:16:57.193Z,102430.94
2023-04-05T00:19:24.028Z,102427.44
2023-04-05T00:21:57.212Z,102426.53
2023-04-05T00:24:24.642Z,102415.19
2023-04-05T00:26:58.187Z,102420.50
2023-04-05T00:29:25.104Z,102420.56
2023-04-05T00:31:58.355Z,102424.97
2023-04-05T00:34:32.203Z,102415.44
2023-04-05T00:36:59.112Z,102419.00
2023-04-05T00:39:32.231Z,102415.63
2023-04-05T00:42:05.162Z,102411.34
2023-04-05T00:44:42.105Z,102411.41
2023-04-05T00:47:09.048Z,102407.16
2023-04-05T00:49:43.191Z,102396.81
2023-04-05T00:52:10.270Z,102388.97
2023-04-05T00:54:46.182Z,102396.91
2023-04-05T00:57:20.420Z,102386.44
2023-04-05T00:59:54.165Z,102388.25
2023-04-05T01:02:37.012Z,102386.56
2023-04-05T01:05:16.221Z,102390.16
2023-04-05T01:08:15.142Z,102391.94
2023-04-05T01:10:53.353Z,102389.44
2023-04-05T01:13:36.171Z,102397.34
2023-04-05T01:16:09.214Z,102397.41
2023-04-05T01:18:37.413Z,102390.50
2023-04-05T01:21:30.199Z,102380.06
2023-04-05T01:24:00.129Z,102390.56
2023-04-05T01:26:53.320Z,102379.28
2023-04-05T01:29:40.124Z,102373.22
2023-04-05T01:32:16.291Z,102381.09
2023-04-05T01:35:04.268Z,102381.13
2023-04-05T01:37:41.214Z,102378.56
2023-04-05T01:40:09.585Z,102374.22
2023-04-05T01:42:44.198Z,102371.63
2023-04-05T01:45:11.339Z,102363.84
2023-04-05T01:47:45.147Z,102359.56
2023-04-05T01:50:12.253Z,102373.53
2023-04-05T01:52:45.192Z,102371.78
2023-04-05T01:55:12.347Z,102367.44
2023-04-05T01:57:39.466Z,102365.75
2023-04-05T02:00:13.192Z,102363.97
2023-04-05T02:02:40.580Z,102364.91
2023-04-05T02:05:14.241Z,102358.84
2023-04-05T02:07:41.085Z,102363.22
2023-04-05T02:10:15.185Z,102366.75
2023-04-05T02:12:48.384Z,102360.69
2023-04-05T02:15:22.197Z,102358.09
2023-04-05T02:17:49.035Z,102353.78
2023-04-05T02:20:22.257Z,102360.72
2023-04-05T02:22:49.183Z,102358.09
2023-04-05T02:25:22.217Z,102353.75
2023-04-05T02:27:49.252Z,102337.25
2023-04-05T02:30:23.220Z,102325.94
2023-04-05T02:32:56.305Z,102327.69
2023-04-05T02:35:24.433Z,102352.06
2023-04-05T02:37:51.424Z,102346.00
2023-04-05T02:40:25.218Z,102335.56
2023-04-05T02:42:58.256Z,102351.28
2023-04-05T02:45:32.210Z,102342.59
2023-04-05T02:48:05.287Z,102348.69
2023-04-05T02:50:32.179Z,102344.38
2023-04-05T02:53:05.240Z,102343.50
2023-04-05T02:55:41.234Z,102342.69
2023-04-05T02:58:08.726Z,102353.09
2023-04-05T03:00:43.206Z,102333.09
2023-04-05T03:03:16.390Z,102340.91
2023-04-05T03:05:50.288Z,102330.47
2023-04-05T03:08:26.216Z,102334.84
2023-04-05T03:11:13.190Z,102342.69
2023-04-05T03:13:46.272Z,102325.38
2023-04-05T03:16:19.299Z,102331.47
2023-04-05T03:18:53.179Z,102335.00
2023-04-05T03:21:26.322Z,102344.63
2023-04-05T03:23:53.130Z,102335.94
2023-04-05T03:26:26.178Z,102340.31
2023-04-05T03:28:52.961Z,102329.00
2023-04-05T03:31:26.256Z,102324.69
2023-04-05T03:33:53.198Z,102331.66
2023-04-05T03:36:26.164Z,102313.44
2023-04-05T03:38:53.007Z,102325.63
2023-04-05T03:41:26.210Z,102323.03
2023-04-05T03:43:53.051Z,102327.38
2023-04-05T03:46:26.322Z,102329.13
2023-04-05T03:48:53.149Z,102317.88
2023-04-05T03:51:26.192Z,102323.09
2023-04-05T03:53:59.200Z,102324.00
2023-04-05T03:56:33.239Z,102323.16
2023-04-05T03:59:00.072Z,102319.69
2023-04-05T04:01:27.285Z,102309.25
2023-04-05T04:04:00.288Z,102305.78
2023-04-05T04:06:27.334Z,102326.69
2023-04-05T04:09:00.270Z,102325.75
2023-04-05T04:11:47.259Z,102314.41
2023-04-05T04:14:20.254Z,102317.03
2023-04-05T04:16:47.223Z,102306.63
2023-04-05T04:19:20.238Z,102321.41
2023-04-05T04:21:51.792Z,102317.03
2023-04-05T04:24:26.184Z,102316.16
2023-04-05T04:26:54.841Z,102298.75
2023-04-05T04:29:38.230Z,102309.22
2023-04-05T04:32:07.126Z,102295.31
2023-04-05T04:34:41.201Z,102296.22
2023-04-05T04:37:07.936Z,102302.28
2023-04-05T04:39:41.272Z,102297.97
2023-04-05T04:42:19.198Z,102301.50
2023-04-05T04:44:46.431Z,102298.03
2023-04-05T04:47:28.244Z,102272.88
2023-04-05T04:49:54.979Z,102297.19
2023-04-05T04:52:28.211Z,102296.34
2023-04-05T04:55:01.215Z,102297.16
2023-04-05T04:57:34.279Z,102289.34
2023-04-05T05:00:08.298Z,102299.78
2023-04-05T05:02:41.285Z,102296.28
2023-04-05T05:05:08.817Z,102301.50
2023-04-05T05:07:36.462Z,102297.16
2023-04-05T05:10:11.243Z,102301.53
2023-04-05T05:12:45.112Z,102302.44
2023-04-05T05:15:19.333Z,102294.56
2023-04-05T05:17:46.156Z,102295.44
2023-04-05T05:20:19.253Z,102304.19
2023-04-05T05:22:46.909Z,102273.78
2023-04-05T05:25:20.383Z,102301.59
2023-04-05T05:27:51.283Z,102286.81
2023-04-05T05:30:26.313Z,102279.00
2023-04-05T05:32:59.380Z,102303.28
2023-04-05T05:35:26.515Z,102284.19
2023-04-05T05:38:00.268Z,102278.94
2023-04-05T05:40:27.292Z,102298.91
2023-04-05T05:43:00.252Z,102289.34
2023-04-05T05:45:27.535Z,102294.53
2023-04-05T05:48:01.287Z,102291.06
2023-04-05T05:50:28.356Z,102291.91
2023-04-05T05:53:02.265Z,102292.75
2023-04-05T05:55:29.015Z,102294.44
2023-04-05T05:58:02.252Z,102304.84
2023-04-05T06:00:29.062Z,102301.31
2023-04-05T06:03:02.268Z,102294.31
2023-04-05T06:05:29.473Z,102296.88
2023-04-05T06:08:03.335Z,102295.97
2023-04-05T06:10:31.287Z,102293.31
2023-04-05T06:13:11.316Z,102285.41
2023-04-05T06:15:45.273Z,102284.44
2023-04-05T06:18:18.274Z,102286.09
2023-04-05T06:20:45.059Z,102286.03
2023-04-05T06:23:25.282Z,102285.91
2023-04-05T06:25:52.134Z,102288.38
2023-04-05T06:28:19.143Z,102291.75
2023-04-05T06:30:52.347Z,102291.63
2023-04-05T06:33:19.315Z,102293.19
2023-04-05T06:35:53.337Z,102282.66
2023-04-05T06:38:22.882Z,102296.44
2023-04-05T06:40:56.299Z,102277.16
2023-04-05T06:43:23.105Z,102280.50
2023-04-05T06:45:56.369Z,102292.47
2023-04-05T06:48:23.291Z,102287.91
2023-04-05T06:51:06.235Z,102281.66
2023-04-05T06:53:33.149Z,102285.81
2023-04-05T06:56:07.279Z,102289.06
2023-04-05T06:58:34.102Z,102293.16
2023-04-05T07:01:08.504Z,102282.50
2023-04-05T07:03:42.279Z,102289.19
2023-04-05T07:06:10.031Z,102285.47
2023-04-05T07:08:43.494Z,102289.53
2023-04-05T07:11:16.496Z,102283.97
2023-04-05T07:13:56.341Z,102284.47
2023-04-05T07:16:23.876Z,102283.31
2023-04-05T07:18:58.305Z,102285.56
2023-04-05T07:21:25.289Z,102280.81
2023-04-05T07:24:00.332Z,102293.53
2023-04-05T07:26:34.249Z,102288.81
2023-04-05T07:29:07.323Z,102286.59
2023-04-05T07:31:35.230Z,102274.00
2023-04-05T07:34:09.278Z,102271.03
2023-04-05T07:36:42.308Z,102277.59
2023-04-05T07:39:09.595Z,102278.91
2023-04-05T07:41:44.319Z,102279.25
2023-04-05T07:44:17.368Z,102277.88
2023-04-05T07:46:53.388Z,102269.03
2023-04-05T07:49:25.292Z,102259.88
2023-04-05T07:52:02.329Z,102276.91
2023-04-05T07:54:31.866Z,102259.16
2023-04-05T07:57:05.349Z,102269.22
2023-04-05T07:59:32.271Z,102282.78
2023-04-05T08:02:14.170Z,102268.59
2023-04-05T08:04:42.208Z,102275.00
2023-04-05T08:07:16.421Z,102281.53
2023-04-05T08:09:43.251Z,102261.16
2023-04-05T08:12:23.609Z,102278.13
2023-04-05T08:14:56.824Z,102251.44
2023-04-05T08:17:33.353Z,102266.88
2023-04-05T08:20:00.203Z,102271.81
2023-04-05T08:22:36.365Z,102269.84
2023-04-05T08:25:09.367Z,102263.38
2023-04-05T08:27:36.454Z,102268.16
2023-04-05T08:30:10.530Z,102270.47
2023-04-05T08:32:37.502Z,102266.56
2023-04-05T08:35:11.374Z,102270.34
2023-04-05T08:37:38.463Z,102262.88
2023-04-05T08:40:12.499Z,102271.28
2023-04-05T08:42:52.491Z,102266.56
2023-04-05T08:45:27.366Z,102259.34
2023-04-05T08:48:01.395Z,102267.06
2023-04-05T08:50:35.350Z,102267.06
2023-04-05T08:53:02.245Z,102264.88
2023-04-05T08:55:35.523Z,102258.38
2023-04-05T08:58:08.154Z,102252.34
2023-04-05T09:00:41.681Z,102251.25
2023-04-05T09:03:13.162Z,102241.38
2023-04-05T09:05:49.340Z,102251.84
2023-04-05T09:08:17.123Z,102251.28
2023-04-05T09:10:44.612Z,102259.03
2023-04-05T09:13:18.321Z,102244.69
2023-04-05T09:15:45.277Z,102252.25
2023-04-05T09:18:26.932Z,102240.78
2023-04-05T09:21:07.339Z,102258.84
2023-04-05T09:23:44.462Z,102244.63
2023-04-05T09:26:22.319Z,102252.06
2023-04-05T09:28:55.453Z,102258.06
2023-04-05T09:31:33.715Z,102250.34
2023-04-05T09:34:12.477Z,102246.66
2023-04-05T09:36:44.722Z,102227.56
2023-04-05T09:39:18.424Z,102244.09
2023-04-05T09:42:22.340Z,102240.75
2023-04-05T09:45:09.547Z,102244.66
2023-04-05T09:47:36.461Z,102224.50
2023-04-05T09:50:22.413Z,102238.09
2023-04-05T09:52:49.784Z,102241.47
2023-04-05T09:55:34.499Z,102238.31
2023-04-05T09:58:02.387Z,102231.94
2023-04-05T10:00:39.607Z,102234.91
2023-04-05T10:03:06.745Z,102234.69
2023-04-05T10:05:40.426Z,102223.91
2023-04-05T10:08:14.430Z,102214.28
2023-04-05T10:10:54.391Z,102219.81
2023-04-05T10:13:34.494Z,102218.22
2023-04-05T10:16:04.705Z,102223.31
2023-04-05T10:18:48.325Z,102208.53
2023-04-05T10:21:25.710Z,102217.97
2023-04-05T10:24:08.489Z,102203.84
2023-04-05T10:26:49.150Z,102200.34
2023-04-05T10:29:29.524Z,102207.47
2023-04-05T10:32:11.407Z,102206.41
2023-04-05T10:34:57.200Z,102210.09
2023-04-05T10:37:42.473Z,102205.03
2023-04-05T10:40:19.512Z,102206.44
2023-04-05T10:42:48.213Z,102197.97
2023-04-05T10:45:26.491Z,102203.88
2023-04-05T10:48:16.919Z,102188.22
2023-04-05T10:50:54.555Z,102185.91
2023-04-05T10:53:22.979Z,102182.16
2023-04-05T10:55:57.437Z,102179.47
2023-04-05T10:58:26.053Z,102188.44
2023-04-05T11:01:01.698Z,102168.78
2023-04-05T11:03:51.316Z,102184.63
2023-04-05T11:06:37.493Z,102168.34
2023-04-05T11:09:19.289Z,102181.66
2023-04-05T11:11:57.326Z,102184.31
2023-04-05T11:14:39.588Z,102176.31
2023-04-05T11:17:31.418Z,102177.88
2023-04-05T11:20:05.796Z,102168.66
2023-04-05T11:22:39.546Z,102174.53
2023-04-05T11:25:07.037Z,102156.63
2023-04-05T11:27:44.603Z,102148.25
2023-04-05T11:30:11.985Z,102162.22
2023-04-05T11:32:47.533Z,102158.19
2023-04-05T11:35:29.521Z,102153.03
2023-04-05T11:38:13.501Z,102154.19
2023-04-05T11:40:47.474Z,102153.34
2023-04-05T11:43:14.294Z,102151.97
2023-04-05T11:45:50.480Z,102147.91
2023-04-05T11:48:18.313Z,102150.34
2023-04-05T11:50:54.444Z,102153.97
2023-04-05T11:53:21.713Z,102150.72
2023-04-05T11:55:57.418Z,102147.09
2023-04-05T11:58:25.700Z,102135.78
2023-04-05T12:01:10.692Z,102136.06
2023-04-05T12:03:44.556Z,102127.59
2023-04-05T12:06:18.469Z,102114.09
2023-04-05T12:08:53.633Z,102131.94
2023-04-05T12:11:34.442Z,102122.78
2023-04-05T12:14:08.192Z,102104.19
2023-04-05T12:16:42.517Z,102118.00
2023-04-05T12:19:15.513Z,102111.78
2023-04-05T12:21:42.585Z,102122.28
2023-04-05T12:24:16.549Z,102118.13
2023-04-05T12:26:50.538Z,102111.34
2023-04-05T12:29:23.479Z,102099.94
2023-04-05T12:31:57.486Z,102120.69
2023-04-05T12:34:34.783Z,102104.09
2023-04-05T12:37:03.511Z,102116.31
2023-04-05T12:39:39.523Z,102115.41
2023-04-05T12:42:06.786Z,102117.47
2023-04-05T12:44:42.502Z,102109.34
2023-04-05T12:47:17.589Z,102101.84
2023-04-05T12:49:51.544Z,102084.28
2023-04-05T12:52:21.294Z,102094.78
2023-04-05T12:55:02.496Z,102058.41
2023-04-05T12:57:32.890Z,102071.94
2023-04-05T13:00:06.472Z,102053.78
2023-04-05T13:02:33.644Z,102069.69
2023-04-05T13:05:07.524Z,102067.88
2023-04-05T13:07:34.602Z,102056.84
2023-04-05T13:10:08.509Z,102054.53
2023-04-05T13:12:42.097Z,102054.28
2023-04-05T13:15:23.503Z,102053.97
2023-04-05T13:17:52.264Z,102054.72
2023-04-05T13:20:26.518Z,102043.66
2023-04-05T13:22:53.443Z,102062.75
2023-04-05T13:25:27.444Z,102029.91
2023-04-05T13:28:00.578Z,102041.63
2023-04-05T13:30:27.904Z,102020.56
2023-04-05T13:33:01.672Z,102028.34
2023-04-05T13:35:28.838Z,102041.31
2023-04-05T13:38:04.558Z,102025.56
2023-04-05T13:40:32.511Z,102021.63
2023-04-05T13:43:06.528Z,102026.38
2023-04-05T13:45:33.439Z,102016.00
2023-04-05T13:48:07.489Z,102019.19
2023-04-05T13:50:35.482Z,102002.94
2023-04-05T13:53:08.521Z,102014.31
2023-04-05T13:55:35.399Z,102005.22
2023-04-05T13:58:08.507Z,102011.94
2023-04-05T14:00:42.076Z,102007.78
2023-04-05T14:03:09.393Z,101992.53
2023-04-05T14:05:42.549Z,102003.91
2023-04-05T14:08:25.670Z,101994.97
2023-04-05T14:11:05.468Z,102007.31
2023-04-05T14:13:38.543Z,101993.38
2023-04-05T14:16:12.536Z,101996.94
2023-04-05T14:18:39.363Z,101991.19
2023-04-05T14:21:12.522Z,101997.13
2023-04-05T14:23:39.904Z,102003.06
2023-04-05T14:26:13.593Z,101999.41
2023-04-05T14:28:40.663Z,101975.63
2023-04-05T14:31:14.527Z,101983.56
2023-04-05T14:33:41.664Z,101959.41
2023-04-05T14:36:15.569Z,101960.09
2023-04-05T14:38:42.422Z,101982.41
2023-04-05T14:41:16.589Z,101977.28
2023-04-05T14:43:43.624Z,101963.94
2023-04-05T14:46:17.607Z,101955.13
2023-04-05T14:49:06.633Z,101966.22
2023-04-05T15:03:26.773Z,101954.22
2023-04-05T15:05:54.440Z,101944.25
2023-04-05T15:08:27.603Z,101948.97
2023-04-05T15:10:54.294Z,101940.81
2023-04-05T15:13:35.614Z,101946.78
2023-04-05T15:16:02.358Z,101937.66
2023-04-05T15:28:27.547Z,101939.72
2023-04-05T15:31:00.606Z,101938.78
2023-04-05T15:33:57.559Z,101939.88
2023-04-05T15:39:32.562Z,101923.81
2023-04-05T15:45:03.660Z,101931.31
2023-04-05T15:47:30.558Z,101930.78
2023-04-05T15:50:05.541Z,101922.13
2023-04-05T15:52:39.583Z,101916.88
2023-04-05T15:55:06.934Z,101916.72
2023-04-05T15:58:27.740Z,101919.09
2023-04-05T16:01:04.508Z,101921.59
2023-04-05T16:06:51.640Z,101906.47
2023-04-05T16:09:24.701Z,101910.66
2023-04-05T16:12:23.554Z,101899.59
2023-04-05T16:17:56.585Z,101903.16
2023-04-05T16:20:30.516Z,101896.78
2023-04-05T16:23:12.590Z,101910.56
2023-04-05T16:25:45.609Z,101904.47
2023-04-05T16:28:15.310Z,101908.22
2023-04-05T16:34:30.621Z,101902.72
2023-04-05T16:37:16.695Z,101886.44
2023-04-05T16:42:25.605Z,101893.50
2023-04-05T16:50:25.704Z,101901.03
2023-04-05T16:52:59.560Z,101896.66
2023-04-05T16:58:23.695Z,101890.47
2023-04-05T17:00:52.047Z,101894.28
2023-04-05T17:03:31.849Z,101889.69
2023-04-05T17:06:02.048Z,101887.31
2023-04-05T17:11:28.507Z,101885.78
2023-04-05T17:14:21.612Z,101883.56
2023-04-05T17:17:08.013Z,101880.53
2023-04-05T17:19:41.808Z,101885.38
2023-04-05T17:22:08.647Z,101879.75
2023-04-05T17:25:18.774Z,101870.00
2023-04-05T17:28:26.016Z,101886.06
2023-04-05T17:36:53.572Z,101883.97
2023-04-05T17:39:20.422Z,101891.19
2023-04-05T17:41:54.649Z,101883.72
2023-04-05T17:44:22.057Z,101883.50
2023-04-05T17:47:27.844Z,101885.72
2023-04-05T17:50:08.220Z,101887.41
2023-04-05T17:55:22.654Z,101887.81
2023-04-05T17:58:25.483Z,101881.53
2023-04-05T18:04:26.269Z,101889.16
2023-04-05T18:07:23.635Z,101884.44
2023-04-05T18:10:12.810Z,101893.09
2023-04-05T18:12:45.634Z,101891.09
2023-04-05T18:15:19.206Z,101882.22
2023-04-05T18:18:03.746Z,101887.06
2023-04-05T18:20:31.328Z,101878.19
2023-04-05T18:23:07.636Z,101885.50
2023-04-05T18:26:25.684Z,101888.69
2023-04-05T18:31:57.148Z,101900.38
2023-04-05T18:34:30.620Z,101892.19
2023-04-05T18:36:57.645Z,101890.03
2023-04-05T18:39:31.741Z,101894.97
2023-04-05T18:42:19.373Z,101889.31
2023-04-05T18:50:08.701Z,101901.25
2023-04-05T18:52:37.772Z,101905.16
2023-04-05T18:55:21.664Z,101894.34
2023-04-05T18:57:48.477Z,101905.91
2023-04-05T19:00:22.674Z,101900.06
2023-04-05T19:02:49.626Z,101901.41
2023-04-05T19:05:18.990Z,101899.03
2023-04-05T19:13:22.615Z,101910.22
2023-04-05T19:15:56.530Z,101918.34
2023-04-05T19:18:32.626Z,101916.88
2023-04-05T19:21:19.454Z,101904.06
2023-04-05T19:27:20.824Z,101911.47
2023-04-05T19:33:26.776Z,101910.38
2023-04-05T19:36:07.721Z,101912.34
2023-04-05T19:38:40.830Z,101910.00
2023-04-05T19:41:20.250Z,101892.13
2023-04-05T19:49:50.956Z,101911.78
2023-04-05T19:52:53.843Z,101904.00
2023-04-05T20:03:52.566Z,101908.69
2023-04-05T20:06:26.746Z,101911.56
2023-04-05T20:09:20.246Z,101908.53
2023-04-05T20:11:57.678Z,101901.00
2023-04-05T20:14:51.005Z,101902.97
2023-04-05T20:20:11.829Z,101915.63
2023-04-05T20:22:45.725Z,101907.25
2023-04-05T20:25:45.102Z,101909.03
2023-04-05T20:31:32.695Z,101907.69
2023-04-05T20:34:15.769Z,101907.84
2023-04-05T20:36:54.684Z,101902.69
2023-04-05T20:39:23.827Z,101893.38
2023-04-05T20:42:11.876Z,101897.84
2023-04-05T20:44:38.736Z,101904.03
2023-04-05T20:50:14.315Z,101889.41
2023-04-05T20:58:07.710Z,101885.31
2023-04-05T21:00:40.740Z,101881.94
2023-04-05T21:03:12.058Z,101869.88
2023-04-05T21:08:49.203Z,101888.16
2023-04-05T21:11:22.726Z,101879.38
2023-04-05T21:14:00.149Z,101886.38
2023-04-05T21:16:33.704Z,101870.56
2023-04-05T21:19:02.198Z,101869.59
2023-04-05T21:21:35.779Z,101867.69
2023-04-05T21:27:15.786Z,101865.88
2023-04-05T21:30:11.819Z,101867.66
2023-04-05T21:35:27.010Z,101862.44
2023-04-05T21:37:53.804Z,101856.09
2023-04-05T21:43:18.665Z,101854.25
2023-04-05T21:45:56.049Z,101864.69
2023-04-05T21:48:24.927Z,101868.19
2023-04-05T21:53:40.777Z,101856.97
2023-04-05T21:56:16.802Z,101857.97
2023-04-05T21:58:43.539Z,101857.09
2023-04-05T22:01:16.960Z,101845.03
2023-04-05T22:03:45.020Z,101856.41
2023-04-05T22:06:20.741Z,101856.53
2023-04-05T22:09:09.697Z,101863.63
2023-04-05T22:14:25.768Z,101851.75
2023-04-05T22:16:59.797Z,101845.81
2023-04-05T22:19:26.725Z,101838.19
2023-04-05T22:24:32.047Z,101841.97
2023-04-05T22:27:09.886Z,101843.94
2023-04-05T22:29:43.784Z,101833.59
2023-04-05T22:32:20.322Z,101831.94
2023-04-05T22:37:33.154Z,101830.31
2023-04-05T22:40:13.732Z,101834.06
2023-04-05T22:42:48.776Z,101832.44
2023-04-05T22:45:15.597Z,101833.38
2023-04-05T22:47:43.599Z,101840.38
2023-04-05T22:55:30.795Z,101831.19
2023-04-05T22:57:57.571Z,101831.31
2023-04-05T23:00:27.387Z,101823.56
2023-04-05T23:05:38.782Z,101822.88
2023-04-05T23:08:05.811Z,101820.41
2023-04-05T23:10:32.571Z,101820.53
2023-04-05T23:13:05.781Z,101817.25
2023-04-05T23:15:38.852Z,101812.97
2023-04-05T23:18:15.722Z,101813.19
2023-04-05T23:20:42.456Z,101804.63
2023-04-05T23:23:15.748Z,101805.53
2023-04-05T23:25:47.801Z,101794.34
2023-04-05T23:28:20.763Z,101802.19
2023-04-05T23:30:49.349Z,101801.50
2023-04-05T23:33:16.756Z,101795.56
2023-04-05T23:35:49.798Z,101798.34
2023-04-05T23:43:54.760Z,101797.06
2023-04-05T23:46:28.700Z,101781.50
2023-04-05T23:51:43.753Z,101776.44
2023-04-05T23:54:10.654Z,101773.94
2023-04-05T23:56:44.841Z,101770.53
2023-04-05T23:59:12.313Z,101764.53
